createdAt,value
2018-08-07T00:00:47.230Z,25.8
2018-08-07T00:01:37.548Z,25.8
2018-08-07T00:02:28.441Z,25.8
2018-08-07T00:03:17.705Z,25.7
2018-08-07T00:04:07.797Z,25.7
2018-08-07T00:04:56.954Z,25.7
2018-08-07T00:05:48.094Z,25.7
2018-08-07T00:06:38.404Z,25.7
2018-08-07T00:07:27.901Z,25.7
2018-08-07T00:08:18.602Z,25.8
2018-08-07T00:09:08.088Z,25.7
2018-08-07T00:09:58.396Z,25.7
2018-08-07T00:10:48.483Z,25.7
2018-08-07T00:11:38.777Z,25.7
2018-08-07T00:12:28.563Z,25.7
2018-08-07T00:13:19.214Z,25.7
2018-08-07T00:14:09.003Z,25.7
2018-08-07T00:14:59.071Z,25.7
2018-08-07T00:15:49.555Z,25.7
2018-08-07T00:16:39.393Z,25.7
2018-08-07T00:17:29.157Z,25.7
2018-08-07T00:18:19.000Z,25.7
2018-08-07T00:19:09.611Z,25.7
2018-08-07T00:19:59.995Z,25.7
2018-08-07T00:20:50.098Z,25.7
2018-08-07T00:21:39.003Z,25.7
2018-08-07T00:22:29.640Z,25.7
2018-08-07T00:23:19.430Z,25.6
2018-08-07T00:24:09.718Z,25.7
2018-08-07T00:24:59.525Z,25.7
2018-08-07T00:25:49.562Z,25.7
2018-08-07T00:26:40.207Z,25.6
2018-08-07T00:27:30.302Z,25.6
2018-08-07T00:28:20.742Z,25.7
2018-08-07T00:29:10.375Z,25.6
2018-08-07T00:29:59.915Z,25.6
2018-08-07T00:30:50.249Z,25.6
2018-08-07T00:31:41.132Z,25.6
2018-08-07T00:32:30.649Z,25.6
2018-08-07T00:33:20.709Z,25.7
2018-08-07T00:34:11.101Z,25.6
2018-08-07T00:35:00.657Z,25.6
2018-08-07T00:35:51.321Z,25.6
2018-08-07T00:36:40.757Z,25.6
2018-08-07T00:37:30.519Z,25.6
2018-08-07T00:38:20.617Z,25.6
2018-08-07T00:39:11.457Z,25.6
2018-08-07T00:40:00.963Z,25.6
2018-08-07T00:40:51.352Z,25.6
2018-08-07T00:41:41.476Z,25.6
2018-08-07T00:42:30.267Z,25.6
2018-08-07T00:43:21.485Z,25.6
2018-08-07T00:44:11.034Z,25.6
2018-08-07T00:45:01.631Z,25.6
2018-08-07T00:45:50.916Z,25.6
2018-08-07T00:46:41.535Z,25.6
2018-08-07T00:47:30.983Z,25.6
2018-08-07T00:48:21.054Z,25.6
2018-08-07T00:49:11.083Z,25.6
2018-08-07T00:50:00.916Z,25.6
2018-08-07T00:50:51.831Z,25.6
2018-08-07T00:51:41.626Z,25.6
2018-08-07T00:52:31.332Z,25.6
2018-08-07T00:53:21.699Z,25.6
2018-08-07T00:54:11.839Z,25.6
2018-08-07T00:55:01.638Z,25.6
2018-08-07T00:55:52.215Z,25.6
2018-08-07T00:56:41.993Z,25.6
2018-08-07T00:57:31.473Z,25.6
2018-08-07T00:58:22.951Z,25.6
2018-08-07T00:59:11.838Z,25.6
2018-08-07T01:00:00.850Z,25.6
2018-08-07T01:00:51.705Z,25.6
2018-08-07T01:01:42.688Z,25.5
2018-08-07T01:02:31.866Z,25.6
2018-08-07T01:03:22.548Z,25.5
2018-08-07T01:04:12.014Z,25.6
2018-08-07T01:05:02.011Z,25.6
2018-08-07T01:05:51.795Z,25.6
2018-08-07T01:06:42.515Z,25.6
2018-08-07T01:07:33.503Z,25.5
2018-08-07T01:08:22.850Z,25.5
2018-08-07T01:09:12.371Z,25.5
2018-08-07T01:10:03.291Z,25.5
2018-08-07T01:10:53.917Z,25.5
2018-08-07T01:11:43.979Z,25.5
2018-08-07T01:12:33.942Z,25.5
2018-08-07T01:13:23.543Z,25.4
2018-08-07T01:14:14.187Z,25.4
2018-08-07T01:15:04.262Z,25.5
2018-08-07T01:15:53.477Z,25.4
2018-08-07T01:16:44.094Z,25.5
2018-08-07T01:17:34.783Z,25.4
2018-08-07T01:18:23.631Z,25.4
2018-08-07T01:19:13.730Z,25.4
2018-08-07T01:20:02.706Z,25.4
2018-08-07T01:20:54.444Z,25.4
2018-08-07T01:21:44.739Z,25.4
2018-08-07T01:22:33.944Z,25.4
2018-08-07T01:23:24.915Z,25.4
2018-08-07T01:24:14.379Z,25.4
2018-08-07T01:25:04.678Z,25.4
2018-08-07T01:25:53.359Z,25.4
2018-08-07T01:26:44.559Z,25.4
2018-08-07T01:27:35.235Z,25.4
2018-08-07T01:28:24.705Z,25.4
2018-08-07T01:29:14.749Z,25.4
2018-08-07T01:30:05.201Z,25.4
2018-08-07T01:30:54.113Z,25.4
2018-08-07T01:31:45.473Z,25.4
2018-08-07T01:32:34.253Z,25.4
2018-08-07T01:33:25.961Z,25.4
2018-08-07T01:34:15.118Z,25.4
2018-08-07T01:35:05.523Z,25.4
2018-08-07T01:35:55.897Z,25.4
2018-08-07T01:36:46.203Z,25.4
2018-08-07T01:37:35.935Z,25.4
2018-08-07T01:38:25.457Z,25.4
2018-08-07T01:39:16.057Z,25.4
2018-08-07T01:40:05.707Z,25.4
2018-08-07T01:40:55.396Z,25.4
2018-08-07T01:41:46.063Z,25.4
2018-08-07T01:42:35.850Z,25.4
2018-08-07T01:43:26.473Z,25.4
2018-08-07T01:44:15.388Z,25.4
2018-08-07T01:45:05.973Z,25.4
2018-08-07T01:45:56.306Z,25.4
2018-08-07T01:46:46.630Z,25.4
2018-08-07T01:47:36.405Z,25.4
2018-08-07T01:48:26.537Z,25.4
2018-08-07T01:49:16.566Z,25.3
2018-08-07T01:50:06.052Z,25.3
2018-08-07T01:50:56.085Z,25.4
2018-08-07T01:51:46.705Z,25.3
2018-08-07T01:52:36.220Z,25.3
2018-08-07T01:53:27.081Z,25.3
2018-08-07T01:54:17.238Z,25.4
2018-08-07T01:55:07.004Z,25.4
2018-08-07T01:55:56.262Z,25.3
2018-08-07T01:56:46.787Z,25.3
2018-08-07T01:57:37.184Z,25.3
2018-08-07T01:58:26.762Z,25.3
2018-08-07T01:59:17.084Z,25.3
2018-08-07T02:00:06.624Z,25.3
2018-08-07T05:07:08.695Z,24.9
2018-08-07T05:07:59.125Z,24.9
2018-08-07T05:08:48.886Z,24.8
2018-08-07T05:09:38.629Z,24.8
2018-08-07T05:10:30.347Z,24.8
2018-08-07T05:11:19.515Z,24.9
2018-08-07T05:12:10.019Z,24.9
2018-08-07T05:12:59.794Z,24.8
2018-08-07T05:13:49.721Z,24.8
2018-08-07T05:14:39.804Z,24.8
2018-08-07T05:15:29.038Z,24.8
2018-08-07T05:16:20.291Z,24.9
2018-08-07T05:17:10.119Z,24.9
2018-08-07T05:17:59.519Z,24.9
2018-08-07T05:18:49.635Z,24.8
2018-08-07T05:19:40.305Z,24.9
2018-08-07T05:20:30.342Z,24.9
2018-08-07T05:21:20.385Z,24.9
2018-08-07T05:22:09.889Z,24.9
2018-08-07T05:23:00.233Z,24.9
2018-08-07T05:23:49.770Z,24.9
2018-08-07T05:24:40.070Z,24.9
2018-08-07T05:25:30.497Z,24.9
2018-08-07T05:26:20.465Z,24.9
2018-08-07T05:27:10.141Z,24.9
2018-08-07T05:28:00.117Z,24.9
2018-08-07T05:28:52.430Z,24.9
2018-08-07T05:29:40.506Z,24.9
2018-08-07T05:30:30.801Z,24.8
2018-08-07T05:31:20.342Z,24.9
2018-08-07T05:32:25.110Z,24.9
2018-08-07T05:33:01.551Z,24.9
2018-08-07T05:33:50.300Z,24.9
2018-08-07T05:34:41.157Z,24.9
2018-08-07T05:35:31.191Z,24.9
2018-08-07T05:36:20.667Z,24.9
2018-08-07T05:37:10.798Z,24.9
2018-08-07T05:38:01.902Z,24.9
2018-08-07T05:38:51.182Z,24.9
2018-08-07T05:39:41.684Z,24.9
2018-08-07T05:40:47.001Z,24.9
2018-08-07T05:41:21.235Z,24.9
2018-08-07T05:42:11.799Z,24.9
2018-08-07T05:43:02.645Z,24.9
2018-08-07T05:43:52.174Z,24.9
2018-08-07T05:44:41.737Z,24.9
2018-08-07T05:45:31.634Z,24.9
2018-08-07T05:46:21.967Z,24.9
2018-08-07T05:47:12.343Z,24.9
2018-08-07T05:48:02.396Z,24.9
2018-08-07T05:48:51.983Z,24.9
2018-08-07T05:49:42.758Z,24.9
2018-08-07T05:50:38.208Z,24.9
2018-08-07T05:51:28.533Z,24.9
2018-08-07T05:52:12.487Z,24.9
2018-08-07T05:53:02.816Z,24.9
2018-08-07T05:53:53.399Z,24.9
2018-08-07T05:54:43.138Z,24.9
2018-08-07T05:55:33.246Z,24.9
2018-08-07T05:56:22.821Z,24.9
2018-08-07T05:57:12.324Z,24.9
2018-08-07T05:58:05.056Z,24.9
2018-08-07T05:59:07.145Z,24.9
2018-08-07T05:59:43.651Z,24.9
2018-08-07T06:00:32.873Z,24.9
2018-08-07T06:01:22.331Z,24.9
2018-08-07T06:02:13.585Z,24.9
2018-08-07T06:03:02.984Z,24.9
2018-08-07T06:03:52.877Z,24.9
2018-08-07T06:04:43.334Z,24.9
2018-08-07T06:05:33.474Z,24.9
2018-08-07T06:06:22.733Z,24.9
2018-08-07T06:07:13.059Z,24.9
2018-08-07T06:08:03.969Z,24.9
2018-08-07T06:09:08.135Z,24.9
2018-08-07T06:09:42.450Z,24.9
2018-08-07T06:10:33.314Z,25
2018-08-07T06:11:23.934Z,24.9
2018-08-07T06:12:14.271Z,24.9
2018-08-07T06:13:04.337Z,24.9
2018-08-07T06:13:53.673Z,25
2018-08-07T06:14:44.020Z,25
2018-08-07T06:15:34.327Z,24.9
2018-08-07T06:16:23.295Z,24.9
2018-08-07T06:17:14.260Z,24.9
2018-08-07T06:18:04.188Z,24.9
2018-08-07T06:18:53.764Z,24.9
2018-08-07T06:19:44.853Z,24.9
2018-08-07T06:20:34.953Z,25
2018-08-07T06:21:24.952Z,25
2018-08-07T06:22:15.423Z,25
2018-08-07T06:23:05.058Z,25
2018-08-07T06:23:55.217Z,24.9
2018-08-07T06:24:45.207Z,24.9
2018-08-07T06:25:36.010Z,25
2018-08-07T06:26:25.053Z,25
2018-08-07T06:27:14.930Z,25
2018-08-07T06:28:04.029Z,25
2018-08-07T06:28:54.070Z,25
2018-08-07T06:29:44.613Z,25
2018-08-07T06:30:33.649Z,25
2018-08-07T06:31:25.246Z,25
2018-08-07T06:32:13.927Z,25
2018-08-07T06:33:04.286Z,25.1
2018-08-07T06:33:54.496Z,25
2018-08-07T06:34:45.162Z,25
2018-08-07T06:35:34.770Z,24.9
2018-08-07T06:36:23.320Z,25
2018-08-07T06:37:15.657Z,25
2018-08-07T06:38:05.712Z,25
2018-08-07T06:38:55.541Z,25
2018-08-07T06:39:46.241Z,25
2018-08-07T06:40:35.151Z,25
2018-08-07T06:41:26.039Z,25
2018-08-07T06:42:16.092Z,25
2018-08-07T06:43:08.690Z,24.9
2018-08-07T06:43:56.841Z,25
2018-08-07T06:44:46.577Z,25
2018-08-07T06:45:36.606Z,25
2018-08-07T06:46:26.909Z,25
2018-08-07T06:47:16.140Z,25
2018-08-07T06:48:08.743Z,25.1
2018-08-07T06:48:57.353Z,25
2018-08-07T06:49:46.923Z,25
2018-08-07T06:50:36.431Z,25.1
2018-08-07T06:51:26.968Z,25
2018-08-07T06:52:17.080Z,25
2018-08-07T06:53:06.936Z,25.1
2018-08-07T06:54:11.396Z,25
2018-08-07T06:54:47.006Z,25
2018-08-07T06:55:36.540Z,25.1
2018-08-07T06:56:27.479Z,25.1
2018-08-07T06:57:18.554Z,25.1
2018-08-07T06:58:07.601Z,25
2018-08-07T06:58:56.828Z,25
2018-08-07T06:59:47.955Z,25.1
2018-08-07T07:00:38.039Z,25.1
2018-08-07T07:01:27.755Z,25.1
2018-08-07T07:02:17.613Z,25
2018-08-07T07:03:08.359Z,25
2018-08-07T07:03:57.806Z,25
2018-08-07T07:04:47.860Z,25.1
2018-08-07T07:05:37.699Z,25.1
2018-08-07T07:06:29.179Z,25.1
2018-08-07T07:07:18.281Z,25.1
2018-08-07T07:08:07.551Z,25.1
2018-08-07T07:08:58.210Z,25.1
2018-08-07T07:09:47.988Z,25.1
2018-08-07T07:10:37.527Z,25.1
2018-08-07T07:11:28.969Z,25.1
2018-08-07T07:12:18.703Z,25
2018-08-07T07:13:08.779Z,25.1
2018-08-07T07:13:57.998Z,25.1
2018-08-07T07:14:48.004Z,25.1
2018-08-07T07:15:38.079Z,25.1
2018-08-07T07:16:28.743Z,25.1
2018-08-07T07:17:18.548Z,25.1
2018-08-07T07:18:08.841Z,25.1
2018-08-07T07:18:57.644Z,25.1
2018-08-07T07:19:48.369Z,25.1
2018-08-07T07:20:38.082Z,25.1
2018-08-07T07:21:28.820Z,25.1
2018-08-07T07:22:18.961Z,25.1
2018-08-07T07:23:09.020Z,25.1
2018-08-07T07:23:59.590Z,25.1
2018-08-07T07:24:49.700Z,25.1
2018-08-07T07:25:39.285Z,25.1
2018-08-07T07:26:29.562Z,25.1
2018-08-07T07:27:19.548Z,25.1
2018-08-07T07:28:09.607Z,25.1
2018-08-07T07:28:59.966Z,25.1
2018-08-07T07:29:49.825Z,25.1
2018-08-07T07:30:40.592Z,25.1
2018-08-07T07:31:29.927Z,25.1
2018-08-07T07:32:19.916Z,25.1
2018-08-07T07:33:10.534Z,25.1
2018-08-07T07:34:00.447Z,25.1
2018-08-07T07:34:51.729Z,25.2
2018-08-07T07:35:41.049Z,25.1
2018-08-07T07:36:30.061Z,25.1
2018-08-07T07:37:21.159Z,25.1
2018-08-07T07:38:10.967Z,25.2
2018-08-07T07:39:01.283Z,25.2
2018-08-07T07:39:50.265Z,25.1
2018-08-07T07:40:41.479Z,25.2
2018-08-07T07:41:31.032Z,25.2
2018-08-07T07:42:20.520Z,25.2
2018-08-07T07:43:11.509Z,25.2
2018-08-07T07:43:59.542Z,25.2
2018-08-07T07:44:50.708Z,25.2
2018-08-07T07:45:41.456Z,25.2
2018-08-07T07:46:31.662Z,25.2
2018-08-07T07:47:35.204Z,25.2
2018-08-07T07:48:10.159Z,25.2
2018-08-07T07:49:01.253Z,25.2
2018-08-07T07:49:51.916Z,25.2
2018-08-07T07:50:41.997Z,25.2
2018-08-07T07:51:31.253Z,25.2
2018-08-07T07:52:22.282Z,25.2
2018-08-07T07:53:26.778Z,25.3
2018-08-07T07:54:03.644Z,25.3
2018-08-07T07:54:51.999Z,25.2
2018-08-07T07:55:41.480Z,25.3
2018-08-07T07:56:32.654Z,25.3
2018-08-07T07:57:22.656Z,25.3
2018-08-07T07:58:12.397Z,25.3
2018-08-07T07:59:02.806Z,25.3
2018-08-07T07:59:52.306Z,25.3
2018-08-07T08:00:42.158Z,25.3
2018-08-07T08:01:33.028Z,25.3
2018-08-07T08:02:23.107Z,25.3
2018-08-07T08:03:12.618Z,25.3
2018-08-07T08:04:02.104Z,25.3
2018-08-07T08:04:52.996Z,25.3
2018-08-07T08:05:44.681Z,25.3
2018-08-07T08:06:32.858Z,25.3
2018-08-07T08:07:23.034Z,25.3
2018-08-07T08:08:12.980Z,25.3
2018-08-07T08:09:03.312Z,25.3
2018-08-07T08:09:53.640Z,25.3
2018-08-07T08:10:42.679Z,25.3
2018-08-07T08:11:33.291Z,25.3
2018-08-07T08:12:23.045Z,25.3
2018-08-07T08:13:13.963Z,25.3
2018-08-07T08:14:03.992Z,25.3
2018-08-07T08:14:53.834Z,25.3
2018-08-07T08:15:43.980Z,25.3
2018-08-07T08:16:34.066Z,25.3
2018-08-07T08:17:24.003Z,25.3
2018-08-07T08:18:12.741Z,25.3
2018-08-07T08:19:04.130Z,25.3
2018-08-07T08:19:53.213Z,25.3
2018-08-07T08:20:44.076Z,25.3
2018-08-07T08:21:33.507Z,25.3
2018-08-07T08:22:24.438Z,25.3
2018-08-07T08:23:14.415Z,25.3
2018-08-07T08:24:03.979Z,25.3
2018-08-07T08:24:54.289Z,25.4
2018-08-07T08:25:44.977Z,25.3
2018-08-07T08:26:34.536Z,25.4
2018-08-07T08:27:24.376Z,25.4
2018-08-07T08:28:13.876Z,25.4
2018-08-07T08:29:06.217Z,25.4
2018-08-07T08:29:57.397Z,25.4
2018-08-07T08:30:43.664Z,25.4
2018-08-07T08:31:35.372Z,25.4
2018-08-07T08:32:24.697Z,25.4
2018-08-07T08:33:14.676Z,25.4
2018-08-07T08:34:04.745Z,25.4
2018-08-07T08:34:55.530Z,25.4
2018-08-07T08:35:45.905Z,25.4
2018-08-07T08:36:35.748Z,25.4
2018-08-07T08:37:25.502Z,25.4
2018-08-07T08:38:15.867Z,25.4
2018-08-07T08:39:05.965Z,25.4
2018-08-07T08:39:55.766Z,25.4
2018-08-07T08:40:45.144Z,25.4
2018-08-07T08:41:35.059Z,25.4
2018-08-07T08:42:25.975Z,25.4
2018-08-07T08:43:14.912Z,25.4
2018-08-07T08:44:05.764Z,25.4
2018-08-07T08:44:55.913Z,25.4
2018-08-07T08:45:46.238Z,25.4
2018-08-07T08:46:36.980Z,25.4
2018-08-07T08:47:26.041Z,25.4
2018-08-07T08:48:16.245Z,25.4
2018-08-07T08:49:06.216Z,25.5
2018-08-07T08:49:55.011Z,25.5
2018-08-07T08:50:45.512Z,25.5
2018-08-07T08:51:36.138Z,25.5
2018-08-07T08:52:26.757Z,25.5
2018-08-07T08:53:15.999Z,25.5
2018-08-07T08:54:07.350Z,25.5
2018-08-07T08:54:56.673Z,25.5
2018-08-07T08:55:46.311Z,25.5
2018-08-07T08:56:36.549Z,25.5
2018-08-07T08:57:27.193Z,25.5
2018-08-07T08:58:16.688Z,25.5
2018-08-07T08:59:06.547Z,25.5
2018-08-07T08:59:57.062Z,25.5
2018-08-07T09:00:46.342Z,25.5
2018-08-07T09:01:35.899Z,25.5
2018-08-07T09:02:27.829Z,25.5
2018-08-07T09:03:16.294Z,25.6
2018-08-07T09:04:07.684Z,25.5
2018-08-07T09:21:31.906Z,25.5
2018-08-07T09:22:22.248Z,25.6
2018-08-07T09:23:13.196Z,25.6
2018-08-07T09:24:02.360Z,25.6
2018-08-07T09:24:52.937Z,25.6
2018-08-07T09:25:48.809Z,25.6
2018-08-07T09:26:32.619Z,25.6
2018-08-07T09:27:22.865Z,25.6
2018-08-07T09:28:13.484Z,25.6
2018-08-07T09:29:03.070Z,25.6
2018-08-07T09:29:53.327Z,25.6
2018-08-07T09:30:42.679Z,25.6
2018-08-07T09:31:33.397Z,25.6
2018-08-07T09:32:23.307Z,25.6
2018-08-07T09:33:13.984Z,25.6
2018-08-07T09:34:03.688Z,25.6
2018-08-07T09:34:53.475Z,25.6
2018-08-07T09:35:43.304Z,25.6
2018-08-07T09:36:33.617Z,25.6
2018-08-07T09:37:24.022Z,25.6
2018-08-07T09:38:13.771Z,25.6
2018-08-07T09:39:04.495Z,25.6
2018-08-07T09:39:54.379Z,25.6
2018-08-07T09:40:44.126Z,25.6
2018-08-07T09:41:33.488Z,25.6
2018-08-07T09:42:24.659Z,25.6
2018-08-07T09:43:14.439Z,25.6
2018-08-07T09:44:04.542Z,25.6
2018-08-07T09:44:54.152Z,25.6
2018-08-07T09:45:44.384Z,25.6
2018-08-07T09:46:35.939Z,25.6
2018-08-07T09:47:24.001Z,25.6
2018-08-07T09:48:14.850Z,25.6
2018-08-07T09:49:04.878Z,25.6
2018-08-07T09:49:56.907Z,25.6
2018-08-07T09:50:44.214Z,25.6
2018-08-07T09:51:35.086Z,25.7
2018-08-07T09:52:26.932Z,25.6
2018-08-07T09:53:14.349Z,25.7
2018-08-07T09:54:04.950Z,25.7
2018-08-07T09:54:55.036Z,25.6
2018-08-07T09:55:44.801Z,25.7
2018-08-07T09:56:35.474Z,25.7
2018-08-07T09:57:24.363Z,25.6
2018-08-07T09:58:15.001Z,25.7
2018-08-07T09:59:05.111Z,25.7
2018-08-07T09:59:55.412Z,25.7
2018-08-07T10:00:45.277Z,25.7
2018-08-07T10:01:34.739Z,25.7
2018-08-07T10:02:26.427Z,25.7
2018-08-07T10:03:15.999Z,25.7
2018-08-07T10:04:05.745Z,25.7
2018-08-07T10:04:55.325Z,25.7
2018-08-07T10:05:46.408Z,25.7
2018-08-07T10:06:36.312Z,25.7
2018-08-07T10:07:26.402Z,25.7
2018-08-07T10:08:15.559Z,25.7
2018-08-07T10:09:05.313Z,25.7
2018-08-07T10:09:55.927Z,25.6
2018-08-07T10:10:46.325Z,25.6
2018-08-07T10:11:36.054Z,25.6
2018-08-07T10:12:27.383Z,25.7
2018-08-07T10:13:16.554Z,25.7
2018-08-07T10:14:06.532Z,25.7
2018-08-07T10:14:56.077Z,25.7
2018-08-07T10:15:46.936Z,25.7
2018-08-07T10:16:37.079Z,25.7
2018-08-07T10:17:26.890Z,25.7
2018-08-07T10:18:16.907Z,25.7
2018-08-07T10:19:07.544Z,25.7
2018-08-07T10:19:56.238Z,25.7
2018-08-07T10:20:46.241Z,25.7
2018-08-07T10:21:37.150Z,25.7
2018-08-07T10:22:26.959Z,25.7
2018-08-07T10:23:18.877Z,25.7
2018-08-07T10:24:06.754Z,25.7
2018-08-07T10:24:57.679Z,25.7
2018-08-07T10:25:48.029Z,25.7
2018-08-07T10:26:37.194Z,25.7
2018-08-07T10:27:28.143Z,25.7
2018-08-07T10:28:17.138Z,25.7
2018-08-07T10:29:07.729Z,25.7
2018-08-07T10:29:57.828Z,25.8
2018-08-07T10:30:47.848Z,25.7
2018-08-07T10:31:37.577Z,25.8
2018-08-07T10:32:27.871Z,25.8
2018-08-07T10:33:17.857Z,25.7
2018-08-07T10:34:08.408Z,25.8
2018-08-07T10:34:58.562Z,25.7
2018-08-07T10:35:48.268Z,25.8
2018-08-07T10:36:38.353Z,25.8
2018-08-07T10:37:28.648Z,25.8
2018-08-07T10:38:18.216Z,25.7
2018-08-07T10:39:08.519Z,25.8
2018-08-07T10:39:58.963Z,25.8
2018-08-07T10:40:51.401Z,25.8
2018-08-07T10:41:38.186Z,25.8
2018-08-07T10:42:28.807Z,25.8
2018-08-07T10:43:23.020Z,25.8
2018-08-07T10:44:09.933Z,25.8
2018-08-07T10:44:58.163Z,25.8
2018-08-07T10:45:49.044Z,25.8
2018-08-07T10:46:39.955Z,25.8
2018-08-07T10:47:28.047Z,25.8
2018-08-07T10:48:19.825Z,25.8
2018-08-07T10:49:08.226Z,25.8
2018-08-07T10:49:59.155Z,25.8
2018-08-07T10:50:48.756Z,25.8
2018-08-07T10:51:39.246Z,25.8
2018-08-07T10:52:30.736Z,25.8
2018-08-07T10:53:19.147Z,25.8
2018-08-07T10:54:09.726Z,25.8
2018-08-07T10:54:59.233Z,25.8
2018-08-07T10:55:49.282Z,25.8
2018-08-07T10:56:42.539Z,25.8
2018-08-07T10:57:30.137Z,25.8
2018-08-07T10:58:21.525Z,25.8
2018-08-07T10:59:10.882Z,25.8
2018-08-07T10:59:59.612Z,25.8
2018-08-07T11:00:49.888Z,25.8
2018-08-07T11:01:40.302Z,25.8
2018-08-07T11:02:30.666Z,25.8
2018-08-07T11:03:20.157Z,25.8
2018-08-07T11:04:10.845Z,25.8
2018-08-07T11:05:00.832Z,25.8
2018-08-07T11:05:52.400Z,25.8
2018-08-07T11:06:40.696Z,25.8
2018-08-07T11:07:29.914Z,25.8
2018-08-07T11:08:20.779Z,25.8
2018-08-07T11:09:10.589Z,25.8
2018-08-07T11:10:01.238Z,25.8
2018-08-07T11:10:50.741Z,25.8
2018-08-07T11:11:40.754Z,25.8
2018-08-07T11:12:31.391Z,25.8
2018-08-07T11:13:21.270Z,25.8
2018-08-07T11:14:10.954Z,25.8
2018-08-07T11:15:01.947Z,25.8
2018-08-07T11:15:51.403Z,25.8
2018-08-07T11:16:41.166Z,25.8
2018-08-07T11:17:31.797Z,25.8
2018-08-07T11:18:20.512Z,25.8
2018-08-07T11:19:11.095Z,25.8
2018-08-07T11:20:02.050Z,25.8
2018-08-07T11:20:51.853Z,25.8
2018-08-07T11:21:41.910Z,25.8
2018-08-07T11:22:31.091Z,25.8
2018-08-07T11:23:21.182Z,25.9
2018-08-07T11:24:12.048Z,25.8
2018-08-07T11:25:02.578Z,25.8
2018-08-07T11:25:52.196Z,25.8
2018-08-07T11:26:42.289Z,25.8
2018-08-07T11:27:32.361Z,25.8
2018-08-07T11:28:22.201Z,25.8
2018-08-07T11:29:12.780Z,25.8
2018-08-07T11:30:04.240Z,25.9
2018-08-07T11:30:52.349Z,25.8
2018-08-07T11:31:42.948Z,25.8
2018-08-07T11:32:32.478Z,25.8
2018-08-07T11:33:22.525Z,25.8
2018-08-07T11:34:13.467Z,25.8
2018-08-07T11:35:03.208Z,25.8
2018-08-07T11:35:53.013Z,25.8
2018-08-07T11:36:43.006Z,25.8
2018-08-07T11:37:31.783Z,25.8
2018-08-07T11:38:23.069Z,25.8
2018-08-07T11:39:13.405Z,25.8
2018-08-07T11:40:03.674Z,25.9
2018-08-07T11:40:53.435Z,25.9
2018-08-07T11:41:42.719Z,25.8
2018-08-07T11:42:33.010Z,25.9
2018-08-07T11:43:23.411Z,25.8
2018-08-07T11:44:13.239Z,25.9
2018-08-07T11:45:03.261Z,25.9
2018-08-07T11:45:53.302Z,25.9
2018-08-07T11:46:42.498Z,25.8
2018-08-07T11:47:33.361Z,25.9
2018-08-07T11:48:24.396Z,25.8
2018-08-07T11:49:14.094Z,25.9
2018-08-07T11:50:03.808Z,25.9
2018-08-07T11:50:53.783Z,25.8
2018-08-07T11:51:43.999Z,25.9
2018-08-07T11:52:34.643Z,25.8
2018-08-07T11:53:24.363Z,25.9
2018-08-07T11:54:13.968Z,25.9
2018-08-07T11:55:03.782Z,25.9
2018-08-07T11:55:54.249Z,25.9
2018-08-07T11:56:44.107Z,25.9
2018-08-07T11:57:33.408Z,25.9
2018-08-07T11:58:24.778Z,25.9
2018-08-07T11:59:14.831Z,25.9
2018-08-07T12:00:04.560Z,25.9
2018-08-07T12:00:54.757Z,25.9
2018-08-07T12:01:44.953Z,25.9
2018-08-07T12:02:35.498Z,25.9
2018-08-07T12:03:24.656Z,25.9
2018-08-07T12:04:14.780Z,25.9
2018-08-07T12:05:05.328Z,25.9
2018-08-07T12:05:55.400Z,25.9
2018-08-07T12:06:45.412Z,25.9
2018-08-07T12:07:35.302Z,25.9
2018-08-07T12:08:24.502Z,25.9
2018-08-07T12:09:15.011Z,25.9
2018-08-07T12:10:05.486Z,25.9
2018-08-07T12:10:55.438Z,25.9
2018-08-07T12:11:45.294Z,25.9
2018-08-07T12:12:36.090Z,25.9
2018-08-07T12:13:24.578Z,25.9
2018-08-07T12:14:15.955Z,25.9
2018-08-07T12:15:06.324Z,25.9
2018-08-07T12:15:55.571Z,25.9
2018-08-07T12:16:46.187Z,25.9
2018-08-07T12:17:35.426Z,25.9
2018-08-07T12:18:26.770Z,25.9
2018-08-07T12:19:16.029Z,25.9
2018-08-07T12:20:06.393Z,25.9
2018-08-07T12:20:56.445Z,25.9
2018-08-07T12:21:48.189Z,25.9
2018-08-07T12:22:37.191Z,25.9
2018-08-07T12:23:26.189Z,25.9
2018-08-07T12:24:15.457Z,25.9
2018-08-07T12:25:07.298Z,25.9
2018-08-07T12:25:56.855Z,25.9
2018-08-07T12:26:46.371Z,25.9
2018-08-07T12:27:37.294Z,25.9
2018-08-07T12:28:27.266Z,25.9
2018-08-07T12:29:16.838Z,25.9
2018-08-07T12:30:07.025Z,25.9
2018-08-07T12:30:56.244Z,25.9
2018-08-07T12:32:01.589Z,25.9
2018-08-07T12:32:36.979Z,25.9
2018-08-07T12:33:27.014Z,25.9
2018-08-07T12:34:17.361Z,25.9
2018-08-07T12:35:08.547Z,25.9
2018-08-07T12:35:56.438Z,25.9
2018-08-07T12:36:47.484Z,25.9
2018-08-07T12:37:37.260Z,25.9
2018-08-07T12:38:27.050Z,25.9
2018-08-07T12:39:18.198Z,25.9
2018-08-07T12:40:08.293Z,25.9
2018-08-07T12:40:57.273Z,25.9
2018-08-07T12:41:48.452Z,25.9
2018-08-07T12:42:38.113Z,25.9
2018-08-07T12:43:28.339Z,25.9
2018-08-07T12:44:17.819Z,25.9
2018-08-07T12:45:08.452Z,25.9
2018-08-07T12:45:57.663Z,25.9
2018-08-07T12:46:49.775Z,25.9
2018-08-07T12:47:38.858Z,25.9
2018-08-07T12:48:28.909Z,25.9
2018-08-07T12:49:18.711Z,25.9
2018-08-07T12:50:09.108Z,25.9
2018-08-07T12:50:58.687Z,25.9
2018-08-07T12:51:49.393Z,25.9
2018-08-07T12:52:39.066Z,25.9
2018-08-07T12:53:30.223Z,25.9
2018-08-07T12:54:18.575Z,25.9
2018-08-07T12:55:07.663Z,25.9
2018-08-07T12:55:59.769Z,25.9
2018-08-07T12:56:48.784Z,26
2018-08-07T12:57:39.488Z,26
2018-08-07T12:58:29.175Z,26
2018-08-07T12:59:18.672Z,25.9
2018-08-07T13:00:09.867Z,25.9
2018-08-07T13:00:59.371Z,25.9
2018-08-07T13:01:49.705Z,25.9
2018-08-07T13:02:38.424Z,25.9
2018-08-07T13:03:30.163Z,25.9
2018-08-07T13:04:19.904Z,25.9
2018-08-07T13:05:09.296Z,26
2018-08-07T13:05:59.854Z,25.9
2018-08-07T13:06:50.692Z,26
2018-08-07T13:07:40.332Z,26
2018-08-07T13:08:28.654Z,26
2018-08-07T13:09:19.844Z,26
2018-08-07T13:10:09.001Z,26
2018-08-07T13:11:00.233Z,26
2018-08-07T13:11:50.252Z,26.1
2018-08-07T13:12:40.834Z,26
2018-08-07T13:13:30.896Z,26
2018-08-07T13:14:21.251Z,26
2018-08-07T13:15:09.989Z,25.9
2018-08-07T13:15:59.821Z,26
2018-08-07T13:16:50.700Z,26.1
2018-08-07T13:17:42.596Z,26
2018-08-07T13:18:29.898Z,26
2018-08-07T13:19:20.615Z,26
2018-08-07T13:20:10.923Z,25.9
2018-08-07T13:21:00.193Z,26
2018-08-07T13:21:51.123Z,26
2018-08-07T13:22:41.659Z,26
2018-08-07T13:23:30.870Z,26
2018-08-07T13:24:20.945Z,26
2018-08-07T13:25:11.020Z,26
2018-08-07T13:26:02.938Z,26
2018-08-07T13:26:52.240Z,26
2018-08-07T13:27:41.738Z,26.1
2018-08-07T13:28:32.381Z,26
2018-08-07T13:29:21.289Z,26
2018-08-07T13:30:11.646Z,26
2018-08-07T13:31:01.187Z,26
2018-08-07T13:31:51.991Z,26.1
2018-08-07T13:32:42.182Z,26.1
2018-08-07T13:33:32.344Z,26
2018-08-07T13:34:21.764Z,26
2018-08-07T13:35:11.816Z,26
2018-08-07T13:36:01.300Z,26
2018-08-07T13:36:52.193Z,26
2018-08-07T13:37:43.009Z,26
2018-08-07T13:38:32.489Z,26.1
2018-08-07T13:39:22.273Z,26
2018-08-07T13:40:12.900Z,26
2018-08-07T13:41:03.666Z,26
2018-08-07T13:41:52.415Z,26.1
2018-08-07T13:42:43.435Z,26.1
2018-08-07T13:43:32.978Z,26
2018-08-07T13:44:23.345Z,26.1
2018-08-07T13:45:13.092Z,26.1
2018-08-07T13:46:03.500Z,26.1
2018-08-07T13:46:53.515Z,26.1
2018-08-07T13:47:43.810Z,26
2018-08-07T13:48:33.658Z,26
2018-08-07T13:49:23.659Z,26.1
2018-08-07T13:50:14.595Z,26.1
2018-08-07T13:51:03.763Z,26
2018-08-07T13:51:53.035Z,26.1
2018-08-07T13:52:44.250Z,26
2018-08-07T13:53:33.995Z,26.1
2018-08-07T13:54:24.357Z,26.1
2018-08-07T13:55:13.593Z,26.1
2018-08-07T13:56:06.445Z,26.1
2018-08-07T13:56:54.330Z,26.1
2018-08-07T13:57:44.123Z,26.1
2018-08-07T13:58:34.185Z,26.1
2018-08-07T13:59:23.473Z,26.1
2018-08-07T14:00:14.308Z,26.1
2018-08-07T14:01:04.653Z,26.1
2018-08-07T14:01:53.294Z,26.1
2018-08-07T14:02:44.227Z,26
2018-08-07T14:03:34.778Z,26.1
2018-08-07T14:04:24.086Z,26.1
2018-08-07T14:05:14.696Z,26.1
2018-08-07T14:06:04.550Z,26.1
2018-08-07T14:06:54.097Z,26.1
2018-08-07T14:07:43.890Z,26.1
2018-08-07T14:08:34.715Z,26.1
2018-08-07T14:09:24.576Z,26.1
2018-08-07T14:10:15.699Z,26.1
2018-08-07T14:11:04.913Z,26.1
2018-08-07T14:11:54.939Z,26.1
2018-08-07T14:12:45.140Z,26.1
2018-08-07T14:13:35.051Z,26.1
2018-08-07T14:14:25.439Z,26.1
2018-08-07T14:15:14.974Z,26.1
2018-08-07T14:16:05.619Z,26.1
2018-08-07T14:16:55.392Z,26.1
2018-08-07T14:17:46.213Z,26.1
2018-08-07T14:18:35.483Z,26.1
2018-08-07T14:19:25.616Z,26
2018-08-07T14:20:16.108Z,26.1
2018-08-07T14:21:04.818Z,26.1
2018-08-07T14:21:55.690Z,26.1
2018-08-07T14:22:46.057Z,26.1
2018-08-07T14:23:36.443Z,26.1
2018-08-07T14:24:26.189Z,26.1
2018-08-07T14:25:15.508Z,26.1
2018-08-07T14:26:05.170Z,26.1
2018-08-07T14:26:55.885Z,26.1
2018-08-07T14:27:46.050Z,26.1
2018-08-07T14:28:36.955Z,26.1
2018-08-07T14:29:25.378Z,26.1
2018-08-07T14:30:15.512Z,26.1
2018-08-07T14:31:06.465Z,26.1
2018-08-07T14:31:56.597Z,26.1
2018-08-07T14:32:46.460Z,26.1
2018-08-07T14:33:36.080Z,26.1
2018-08-07T14:34:26.963Z,26.1